sensor_id;sensor_type;location;lat;lon;timestamp;temperature;humidity
8475;DHT22;4274;52.012;8.448;2023-11-19T00:02:12;7.70;99.90
8475;DHT22;4274;52.012;8.448;2023-11-19T00:04:38;7.70;99.90
8475;DHT22;4274;52.012;8.448;2023-11-19T00:07:06;7.80;99.90
8475;DHT22;4274;52.012;8.448;2023-11-19T00:09:36;7.80;99.90
8475;DHT22;4274;52.012;8.448;2023-11-19T00:12:06;7.90;99.90
8475;DHT22;4274;52.012;8.448;2023-11-19T00:14:33;8.00;99.90
8475;DHT22;4274;52.012;8.448;2023-11-19T00:17:00;8.10;99.90
8475;DHT22;4274;52.012;8.448;2023-11-19T00:19:25;8.10;99.90
8475;DHT22;4274;52.012;8.448;2023-11-19T00:21:51;8.10;99.90
8475;DHT22;4274;52.012;8.448;2023-11-19T00:24:17;8.20;99.90
8475;DHT22;4274;52.012;8.448;2023-11-19T00:26:43;8.20;99.90
8475;DHT22;4274;52.012;8.448;2023-11-19T00:29:09;8.20;99.90
8475;DHT22;4274;52.012;8.448;2023-11-19T00:31:34;8.30;99.90
8475;DHT22;4274;52.012;8.448;2023-11-19T00:34:00;8.30;99.90
8475;DHT22;4274;52.012;8.448;2023-11-19T00:36:27;8.40;99.90
8475;DHT22;4274;52.012;8.448;2023-11-19T00:38:53;8.40;99.90
8475;DHT22;4274;52.012;8.448;2023-11-19T00:41:19;8.40;99.90
8475;DHT22;4274;52.012;8.448;2023-11-19T00:43:44;8.40;99.90
8475;DHT22;4274;52.012;8.448;2023-11-19T00:46:10;8.50;99.90
8475;DHT22;4274;52.012;8.448;2023-11-19T00:48:41;8.50;99.90
8475;DHT22;4274;52.012;8.448;2023-11-19T00:51:07;8.60;99.90
8475;DHT22;4274;52.012;8.448;2023-11-19T00:53:33;8.60;99.90
8475;DHT22;4274;52.012;8.448;2023-11-19T00:55:59;8.60;99.90
8475;DHT22;4274;52.012;8.448;2023-11-19T00:58:25;8.60;99.90
8475;DHT22;4274;52.012;8.448;2023-11-19T01:00:50;8.60;99.90
8475;DHT22;4274;52.012;8.448;2023-11-19T01:03:16;8.70;99.90
8475;DHT22;4274;52.012;8.448;2023-11-19T01:05:42;8.70;99.90
8475;DHT22;4274;52.012;8.448;2023-11-19T01:08:07;8.70;99.90
8475;DHT22;4274;52.012;8.448;2023-11-19T01:10:33;8.70;99.90
8475;DHT22;4274;52.012;8.448;2023-11-19T01:12:59;8.70;99.90
8475;DHT22;4274;52.012;8.448;2023-11-19T01:15:25;8.70;99.90
8475;DHT22;4274;52.012;8.448;2023-11-19T01:17:51;8.80;99.90
8475;DHT22;4274;52.012;8.448;2023-11-19T01:20:17;8.80;99.90
8475;DHT22;4274;52.012;8.448;2023-11-19T01:22:42;8.80;99.90
8475;DHT22;4274;52.012;8.448;2023-11-19T01:25:08;8.80;99.90
8475;DHT22;4274;52.012;8.448;2023-11-19T01:27:34;8.90;99.90
8475;DHT22;4274;52.012;8.448;2023-11-19T01:30:01;8.90;99.90
8475;DHT22;4274;52.012;8.448;2023-11-19T01:32:29;8.90;99.90
8475;DHT22;4274;52.012;8.448;2023-11-19T01:34:54;9.00;99.90
8475;DHT22;4274;52.012;8.448;2023-11-19T01:37:20;9.10;99.90
8475;DHT22;4274;52.012;8.448;2023-11-19T01:39:46;9.10;99.90
8475;DHT22;4274;52.012;8.448;2023-11-19T01:42:11;9.10;99.90
8475;DHT22;4274;52.012;8.448;2023-11-19T01:44:41;9.20;99.90
8475;DHT22;4274;52.012;8.448;2023-11-19T01:47:07;9.20;99.90
8475;DHT22;4274;52.012;8.448;2023-11-19T01:49:32;9.10;99.90
8475;DHT22;4274;52.012;8.448;2023-11-19T01:51:59;9.20;99.90
8475;DHT22;4274;52.012;8.448;2023-11-19T01:54:25;9.20;99.90
8475;DHT22;4274;52.012;8.448;2023-11-19T01:56:52;9.20;99.90
8475;DHT22;4274;52.012;8.448;2023-11-19T01:59:19;9.20;99.90
8475;DHT22;4274;52.012;8.448;2023-11-19T02:01:52;9.30;99.90
8475;DHT22;4274;52.012;8.448;2023-11-19T02:04:18;9.30;99.90
8475;DHT22;4274;52.012;8.448;2023-11-19T02:06:45;9.30;99.90
8475;DHT22;4274;52.012;8.448;2023-11-19T02:09:12;9.40;99.90
8475;DHT22;4274;52.012;8.448;2023-11-19T02:11:40;9.40;99.90
8475;DHT22;4274;52.012;8.448;2023-11-19T02:14:06;9.40;99.90
8475;DHT22;4274;52.012;8.448;2023-11-19T02:16:32;9.50;99.90
8475;DHT22;4274;52.012;8.448;2023-11-19T02:18:57;9.50;99.90
8475;DHT22;4274;52.012;8.448;2023-11-19T02:21:23;9.50;99.90
8475;DHT22;4274;52.012;8.448;2023-11-19T02:23:49;9.50;99.90
8475;DHT22;4274;52.012;8.448;2023-11-19T02:26:38;9.60;99.90
8475;DHT22;4274;52.012;8.448;2023-11-19T02:29:05;9.60;99.90
8475;DHT22;4274;52.012;8.448;2023-11-19T02:31:32;9.60;99.90
8475;DHT22;4274;52.012;8.448;2023-11-19T02:33:57;9.70;99.90
8475;DHT22;4274;52.012;8.448;2023-11-19T02:36:25;9.70;99.90
8475;DHT22;4274;52.012;8.448;2023-11-19T02:38:51;9.70;99.90
8475;DHT22;4274;52.012;8.448;2023-11-19T02:41:16;9.80;99.90
8475;DHT22;4274;52.012;8.448;2023-11-19T02:43:42;9.80;99.90
8475;DHT22;4274;52.012;8.448;2023-11-19T02:46:07;9.80;99.90
8475;DHT22;4274;52.012;8.448;2023-11-19T02:48:36;9.80;99.90
8475;DHT22;4274;52.012;8.448;2023-11-19T02:51:02;9.80;99.90
8475;DHT22;4274;52.012;8.448;2023-11-19T02:53:34;9.90;99.90
8475;DHT22;4274;52.012;8.448;2023-11-19T02:56:00;9.90;99.90
8475;DHT22;4274;52.012;8.448;2023-11-19T02:58:37;9.90;99.90
8475;DHT22;4274;52.012;8.448;2023-11-19T03:01:03;9.90;99.90
8475;DHT22;4274;52.012;8.448;2023-11-19T03:03:38;10.00;99.90
8475;DHT22;4274;52.012;8.448;2023-11-19T03:06:06;10.00;99.90
8475;DHT22;4274;52.012;8.448;2023-11-19T03:08:32;10.00;99.90
8475;DHT22;4274;52.012;8.448;2023-11-19T03:10:58;10.00;99.90
8475;DHT22;4274;52.012;8.448;2023-11-19T03:13:24;10.10;99.90
8475;DHT22;4274;52.012;8.448;2023-11-19T03:15:50;10.10;99.90
8475;DHT22;4274;52.012;8.448;2023-11-19T03:18:16;10.20;99.90
8475;DHT22;4274;52.012;8.448;2023-11-19T03:20:42;10.20;99.90
8475;DHT22;4274;52.012;8.448;2023-11-19T03:23:08;10.30;99.90
8475;DHT22;4274;52.012;8.448;2023-11-19T03:25:33;10.30;99.90
8475;DHT22;4274;52.012;8.448;2023-11-19T03:28:00;10.30;99.90
8475;DHT22;4274;52.012;8.448;2023-11-19T03:30:29;10.40;99.90
8475;DHT22;4274;52.012;8.448;2023-11-19T03:32:56;10.40;99.90
8475;DHT22;4274;52.012;8.448;2023-11-19T03:35:22;10.40;99.90
8475;DHT22;4274;52.012;8.448;2023-11-19T03:37:48;10.40;99.90
8475;DHT22;4274;52.012;8.448;2023-11-19T03:40:14;10.50;99.90
8475;DHT22;4274;52.012;8.448;2023-11-19T03:42:40;10.50;99.90
8475;DHT22;4274;52.012;8.448;2023-11-19T03:45:06;10.60;99.90
8475;DHT22;4274;52.012;8.448;2023-11-19T03:47:35;10.60;99.90
8475;DHT22;4274;52.012;8.448;2023-11-19T03:50:01;10.60;99.90
8475;DHT22;4274;52.012;8.448;2023-11-19T03:52:28;10.60;99.90
8475;DHT22;4274;52.012;8.448;2023-11-19T03:54:54;10.70;99.90
8475;DHT22;4274;52.012;8.448;2023-11-19T03:57:21;10.70;99.90
8475;DHT22;4274;52.012;8.448;2023-11-19T03:59:46;10.70;99.90
8475;DHT22;4274;52.012;8.448;2023-11-19T04:02:12;10.70;99.90
8475;DHT22;4274;52.012;8.448;2023-11-19T04:04:38;10.80;99.90
8475;DHT22;4274;52.012;8.448;2023-11-19T04:07:04;10.80;99.90
8475;DHT22;4274;52.012;8.448;2023-11-19T04:09:30;10.80;99.90
8475;DHT22;4274;52.012;8.448;2023-11-19T04:11:56;10.80;99.90
8475;DHT22;4274;52.012;8.448;2023-11-19T04:14:22;10.80;99.90
8475;DHT22;4274;52.012;8.448;2023-11-19T04:16:48;10.90;99.90
8475;DHT22;4274;52.012;8.448;2023-11-19T04:19:13;10.80;99.90
8475;DHT22;4274;52.012;8.448;2023-11-19T04:21:42;10.80;99.90
8475;DHT22;4274;52.012;8.448;2023-11-19T04:24:09;10.90;99.90
8475;DHT22;4274;52.012;8.448;2023-11-19T04:26:43;10.90;99.90
8475;DHT22;4274;52.012;8.448;2023-11-19T04:29:11;10.90;99.90
8475;DHT22;4274;52.012;8.448;2023-11-19T04:31:38;10.90;99.90
8475;DHT22;4274;52.012;8.448;2023-11-19T04:34:04;10.90;99.90
8475;DHT22;4274;52.012;8.448;2023-11-19T04:36:30;10.90;99.90
8475;DHT22;4274;52.012;8.448;2023-11-19T04:38:55;10.90;99.90
8475;DHT22;4274;52.012;8.448;2023-11-19T04:41:21;11.00;99.90
8475;DHT22;4274;52.012;8.448;2023-11-19T04:43:46;11.00;99.90
8475;DHT22;4274;52.012;8.448;2023-11-19T04:46:12;11.00;99.90
8475;DHT22;4274;52.012;8.448;2023-11-19T04:48:38;11.00;99.90
8475;DHT22;4274;52.012;8.448;2023-11-19T04:51:06;11.00;99.90
8475;DHT22;4274;52.012;8.448;2023-11-19T04:53:32;11.00;99.90
8475;DHT22;4274;52.012;8.448;2023-11-19T04:55:58;11.00;99.90
8475;DHT22;4274;52.012;8.448;2023-11-19T04:58:24;10.90;99.90
8475;DHT22;4274;52.012;8.448;2023-11-19T05:00:50;10.90;99.90
8475;DHT22;4274;52.012;8.448;2023-11-19T05:03:15;10.90;99.90
8475;DHT22;4274;52.012;8.448;2023-11-19T05:05:41;10.90;99.90
8475;DHT22;4274;52.012;8.448;2023-11-19T05:08:06;10.90;99.90
8475;DHT22;4274;52.012;8.448;2023-11-19T05:10:32;10.90;99.90
8475;DHT22;4274;52.012;8.448;2023-11-19T05:12:58;10.80;99.90
8475;DHT22;4274;52.012;8.448;2023-11-19T05:15:23;10.80;99.90
8475;DHT22;4274;52.012;8.448;2023-11-19T05:17:49;10.80;99.90
8475;DHT22;4274;52.012;8.448;2023-11-19T05:20:14;10.80;99.90
8475;DHT22;4274;52.012;8.448;2023-11-19T05:22:41;10.80;99.90
8475;DHT22;4274;52.012;8.448;2023-11-19T05:25:07;10.80;99.90
8475;DHT22;4274;52.012;8.448;2023-11-19T05:27:32;10.80;99.90
8475;DHT22;4274;52.012;8.448;2023-11-19T05:29:58;10.80;99.90
8475;DHT22;4274;52.012;8.448;2023-11-19T05:32:23;10.80;99.90
8475;DHT22;4274;52.012;8.448;2023-11-19T05:34:49;10.80;99.90
8475;DHT22;4274;52.012;8.448;2023-11-19T05:37:14;10.70;99.90
8475;DHT22;4274;52.012;8.448;2023-11-19T05:39:40;10.70;99.90
8475;DHT22;4274;52.012;8.448;2023-11-19T05:42:05;10.70;99.90
8475;DHT22;4274;52.012;8.448;2023-11-19T05:44:31;10.70;99.90
8475;DHT22;4274;52.012;8.448;2023-11-19T05:46:56;10.60;99.90
8475;DHT22;4274;52.012;8.448;2023-11-19T05:49:22;10.60;99.90
8475;DHT22;4274;52.012;8.448;2023-11-19T05:51:48;10.60;99.90
8475;DHT22;4274;52.012;8.448;2023-11-19T05:54:13;10.70;99.90
8475;DHT22;4274;52.012;8.448;2023-11-19T05:56:39;10.70;99.90
8475;DHT22;4274;52.012;8.448;2023-11-19T05:59:04;10.60;99.90
8475;DHT22;4274;52.012;8.448;2023-11-19T06:01:35;10.60;99.90
8475;DHT22;4274;52.012;8.448;2023-11-19T06:04:02;10.70;99.90
8475;DHT22;4274;52.012;8.448;2023-11-19T06:06:28;10.70;99.90
8475;DHT22;4274;52.012;8.448;2023-11-19T06:08:54;10.70;99.90
8475;DHT22;4274;52.012;8.448;2023-11-19T06:11:20;10.60;99.90
8475;DHT22;4274;52.012;8.448;2023-11-19T06:13:46;10.60;99.90
8475;DHT22;4274;52.012;8.448;2023-11-19T06:16:13;10.60;99.90
8475;DHT22;4274;52.012;8.448;2023-11-19T06:18:38;10.60;99.90
8475;DHT22;4274;52.012;8.448;2023-11-19T06:21:04;10.50;99.90
8475;DHT22;4274;52.012;8.448;2023-11-19T06:23:30;10.50;99.90
8475;DHT22;4274;52.012;8.448;2023-11-19T06:25:55;10.50;99.90
8475;DHT22;4274;52.012;8.448;2023-11-19T06:28:21;10.50;99.90
8475;DHT22;4274;52.012;8.448;2023-11-19T06:30:46;10.50;99.90
8475;DHT22;4274;52.012;8.448;2023-11-19T06:33:15;10.50;99.90
8475;DHT22;4274;52.012;8.448;2023-11-19T06:35:41;10.40;99.90
8475;DHT22;4274;52.012;8.448;2023-11-19T06:38:06;10.40;99.90
8475;DHT22;4274;52.012;8.448;2023-11-19T06:40:35;10.40;99.90
8475;DHT22;4274;52.012;8.448;2023-11-19T06:43:01;10.50;99.90
8475;DHT22;4274;52.012;8.448;2023-11-19T06:45:29;10.50;99.90
8475;DHT22;4274;52.012;8.448;2023-11-19T06:47:54;10.40;99.90
8475;DHT22;4274;52.012;8.448;2023-11-19T06:50:20;10.50;99.90
8475;DHT22;4274;52.012;8.448;2023-11-19T06:52:46;10.50;99.90
8475;DHT22;4274;52.012;8.448;2023-11-19T06:55:11;10.50;99.90
8475;DHT22;4274;52.012;8.448;2023-11-19T06:57:37;10.50;99.90
8475;DHT22;4274;52.012;8.448;2023-11-19T07:00:03;10.50;99.90
8475;DHT22;4274;52.012;8.448;2023-11-19T07:02:31;10.50;99.90
8475;DHT22;4274;52.012;8.448;2023-11-19T07:04:56;10.50;99.90
8475;DHT22;4274;52.012;8.448;2023-11-19T07:07:22;10.50;99.90
8475;DHT22;4274;52.012;8.448;2023-11-19T07:09:48;10.50;99.90
8475;DHT22;4274;52.012;8.448;2023-11-19T07:12:13;10.60;99.90
8475;DHT22;4274;52.012;8.448;2023-11-19T07:14:40;10.60;99.90
8475;DHT22;4274;52.012;8.448;2023-11-19T07:17:07;10.60;99.90
8475;DHT22;4274;52.012;8.448;2023-11-19T07:19:34;10.60;99.90
8475;DHT22;4274;52.012;8.448;2023-11-19T07:22:02;10.60;99.90
8475;DHT22;4274;52.012;8.448;2023-11-19T07:24:27;10.60;99.90
8475;DHT22;4274;52.012;8.448;2023-11-19T07:26:53;10.60;99.90
8475;DHT22;4274;52.012;8.448;2023-11-19T07:29:19;10.60;99.90
8475;DHT22;4274;52.012;8.448;2023-11-19T07:31:48;10.60;99.90
8475;DHT22;4274;52.012;8.448;2023-11-19T07:34:14;10.70;99.90
8475;DHT22;4274;52.012;8.448;2023-11-19T07:36:39;10.70;99.90
8475;DHT22;4274;52.012;8.448;2023-11-19T07:39:05;10.70;99.90
8475;DHT22;4274;52.012;8.448;2023-11-19T07:41:31;10.70;99.90
8475;DHT22;4274;52.012;8.448;2023-11-19T07:43:57;10.70;99.90
8475;DHT22;4274;52.012;8.448;2023-11-19T07:46:23;10.60;99.90
8475;DHT22;4274;52.012;8.448;2023-11-19T07:48:48;10.70;99.90
8475;DHT22;4274;52.012;8.448;2023-11-19T07:51:14;10.70;99.90
8475;DHT22;4274;52.012;8.448;2023-11-19T07:53:41;10.70;99.90
8475;DHT22;4274;52.012;8.448;2023-11-19T07:56:08;10.70;99.90
8475;DHT22;4274;52.012;8.448;2023-11-19T07:58:33;10.70;99.90
8475;DHT22;4274;52.012;8.448;2023-11-19T08:00:59;10.80;99.90
8475;DHT22;4274;52.012;8.448;2023-11-19T08:03:25;10.80;99.90
8475;DHT22;4274;52.012;8.448;2023-11-19T08:05:50;10.90;99.90
8475;DHT22;4274;52.012;8.448;2023-11-19T08:08:16;10.90;99.90
8475;DHT22;4274;52.012;8.448;2023-11-19T08:10:42;11.00;99.90
8475;DHT22;4274;52.012;8.448;2023-11-19T08:13:10;11.00;99.90
8475;DHT22;4274;52.012;8.448;2023-11-19T08:15:36;11.00;99.90
8475;DHT22;4274;52.012;8.448;2023-11-19T08:18:01;11.00;99.90
8475;DHT22;4274;52.012;8.448;2023-11-19T08:20:27;11.00;99.90
8475;DHT22;4274;52.012;8.448;2023-11-19T08:22:53;11.00;99.90
8475;DHT22;4274;52.012;8.448;2023-11-19T08:25:18;11.00;99.90
8475;DHT22;4274;52.012;8.448;2023-11-19T08:27:44;11.10;99.90
8475;DHT22;4274;52.012;8.448;2023-11-19T08:30:10;11.10;99.90
8475;DHT22;4274;52.012;8.448;2023-11-19T08:32:35;11.10;99.90
8475;DHT22;4274;52.012;8.448;2023-11-19T08:35:01;11.20;99.90
8475;DHT22;4274;52.012;8.448;2023-11-19T08:37:27;11.30;99.90
8475;DHT22;4274;52.012;8.448;2023-11-19T08:39:52;11.30;99.90
8475;DHT22;4274;52.012;8.448;2023-11-19T08:42:18;11.30;99.90
8475;DHT22;4274;52.012;8.448;2023-11-19T08:44:49;11.20;99.90
8475;DHT22;4274;52.012;8.448;2023-11-19T08:47:16;11.10;99.90
8475;DHT22;4274;52.012;8.448;2023-11-19T08:49:43;11.10;99.90
8475;DHT22;4274;52.012;8.448;2023-11-19T08:52:09;11.10;99.90
8475;DHT22;4274;52.012;8.448;2023-11-19T08:54:36;11.10;99.90
8475;DHT22;4274;52.012;8.448;2023-11-19T08:57:02;11.10;99.90
8475;DHT22;4274;52.012;8.448;2023-11-19T08:59:28;11.10;99.90
8475;DHT22;4274;52.012;8.448;2023-11-19T09:01:54;11.10;99.90
8475;DHT22;4274;52.012;8.448;2023-11-19T09:04:20;11.10;99.90
8475;DHT22;4274;52.012;8.448;2023-11-19T09:06:48;11.10;99.90
8475;DHT22;4274;52.012;8.448;2023-11-19T09:09:13;11.10;99.90
8475;DHT22;4274;52.012;8.448;2023-11-19T09:11:39;11.10;99.90
8475;DHT22;4274;52.012;8.448;2023-11-19T09:14:05;11.20;99.90
8475;DHT22;4274;52.012;8.448;2023-11-19T09:16:32;11.30;99.90
8475;DHT22;4274;52.012;8.448;2023-11-19T09:18:57;11.30;99.90
8475;DHT22;4274;52.012;8.448;2023-11-19T09:21:25;11.40;99.90
8475;DHT22;4274;52.012;8.448;2023-11-19T09:23:50;11.40;99.90
8475;DHT22;4274;52.012;8.448;2023-11-19T09:26:16;11.30;99.90
8475;DHT22;4274;52.012;8.448;2023-11-19T09:28:41;11.30;99.90
8475;DHT22;4274;52.012;8.448;2023-11-19T09:31:14;11.30;99.90
8475;DHT22;4274;52.012;8.448;2023-11-19T09:33:40;11.30;99.90
8475;DHT22;4274;52.012;8.448;2023-11-19T09:36:06;11.30;99.90
8475;DHT22;4274;52.012;8.448;2023-11-19T09:38:31;11.30;99.90
8475;DHT22;4274;52.012;8.448;2023-11-19T09:40:58;11.30;99.90
8475;DHT22;4274;52.012;8.448;2023-11-19T09:43:26;11.30;99.90
8475;DHT22;4274;52.012;8.448;2023-11-19T09:45:54;11.40;99.90
8475;DHT22;4274;52.012;8.448;2023-11-19T09:48:20;11.40;99.90
8475;DHT22;4274;52.012;8.448;2023-11-19T09:50:47;11.60;99.90
8475;DHT22;4274;52.012;8.448;2023-11-19T09:53:13;11.90;99.90
8475;DHT22;4274;52.012;8.448;2023-11-19T09:55:40;12.40;99.90
8475;DHT22;4274;52.012;8.448;2023-11-19T09:58:06;12.50;99.90
8475;DHT22;4274;52.012;8.448;2023-11-19T10:00:32;12.40;99.90
8475;DHT22;4274;52.012;8.448;2023-11-19T10:02:59;12.20;99.90
8475;DHT22;4274;52.012;8.448;2023-11-19T10:05:25;12.20;99.90
8475;DHT22;4274;52.012;8.448;2023-11-19T10:07:54;12.10;99.90
8475;DHT22;4274;52.012;8.448;2023-11-19T10:10:21;12.10;99.90
8475;DHT22;4274;52.012;8.448;2023-11-19T10:12:46;12.20;99.90
8475;DHT22;4274;52.012;8.448;2023-11-19T10:15:20;12.20;99.90
8475;DHT22;4274;52.012;8.448;2023-11-19T10:17:47;12.40;99.90
8475;DHT22;4274;52.012;8.448;2023-11-19T10:20:13;12.50;99.90
8475;DHT22;4274;52.012;8.448;2023-11-19T10:22:39;12.90;99.90
8475;DHT22;4274;52.012;8.448;2023-11-19T10:25:18;13.30;99.90
8475;DHT22;4274;52.012;8.448;2023-11-19T10:27:47;13.60;99.90
8475;DHT22;4274;52.012;8.448;2023-11-19T10:30:17;13.70;99.90
8475;DHT22;4274;52.012;8.448;2023-11-19T10:32:42;13.70;99.90
8475;DHT22;4274;52.012;8.448;2023-11-19T10:35:08;13.80;99.90
8475;DHT22;4274;52.012;8.448;2023-11-19T10:37:33;13.70;99.90
8475;DHT22;4274;52.012;8.448;2023-11-19T10:40:02;13.50;99.90
8475;DHT22;4274;52.012;8.448;2023-11-19T10:42:30;13.30;99.90
8475;DHT22;4274;52.012;8.448;2023-11-19T10:44:56;13.10;99.90
8475;DHT22;4274;52.012;8.448;2023-11-19T10:47:23;12.90;99.90
8475;DHT22;4274;52.012;8.448;2023-11-19T10:49:49;12.70;99.90
8475;DHT22;4274;52.012;8.448;2023-11-19T10:52:18;12.60;99.90
8475;DHT22;4274;52.012;8.448;2023-11-19T10:54:50;12.60;99.90
8475;DHT22;4274;52.012;8.448;2023-11-19T10:57:21;12.40;99.90
8475;DHT22;4274;52.012;8.448;2023-11-19T10:59:52;12.30;99.90
8475;DHT22;4274;52.012;8.448;2023-11-19T11:02:24;12.30;99.90
8475;DHT22;4274;52.012;8.448;2023-11-19T11:04:51;12.20;99.90
8475;DHT22;4274;52.012;8.448;2023-11-19T11:07:21;12.10;99.90
8475;DHT22;4274;52.012;8.448;2023-11-19T11:09:48;12.00;99.90
8475;DHT22;4274;52.012;8.448;2023-11-19T11:12:15;12.00;99.90
8475;DHT22;4274;52.012;8.448;2023-11-19T11:14:44;11.90;99.90
8475;DHT22;4274;52.012;8.448;2023-11-19T11:17:12;11.90;99.90
8475;DHT22;4274;52.012;8.448;2023-11-19T11:19:42;11.80;99.90
8475;DHT22;4274;52.012;8.448;2023-11-19T11:22:09;11.70;99.90
8475;DHT22;4274;52.012;8.448;2023-11-19T11:36:17;11.30;99.90
8475;DHT22;4274;52.012;8.448;2023-11-19T11:38:40;11.30;99.90
8475;DHT22;4274;52.012;8.448;2023-11-19T11:41:16;11.40;99.90
8475;DHT22;4274;52.012;8.448;2023-11-19T11:43:49;11.40;99.90
8475;DHT22;4274;52.012;8.448;2023-11-19T11:49:01;11.50;99.90
8475;DHT22;4274;52.012;8.448;2023-11-19T11:57:10;11.20;99.90
8475;DHT22;4274;52.012;8.448;2023-11-19T11:59:43;11.20;99.90
8475;DHT22;4274;52.012;8.448;2023-11-19T12:02:13;11.10;99.90
8475;DHT22;4274;52.012;8.448;2023-11-19T12:04:42;11.00;99.90
8475;DHT22;4274;52.012;8.448;2023-11-19T12:07:12;11.00;99.90
8475;DHT22;4274;52.012;8.448;2023-11-19T12:09:42;10.90;99.90
8475;DHT22;4274;52.012;8.448;2023-11-19T12:12:18;10.90;99.90
8475;DHT22;4274;52.012;8.448;2023-11-19T12:17:38;11.20;99.90
8475;DHT22;4274;52.012;8.448;2023-11-19T12:20:07;11.30;99.90
8475;DHT22;4274;52.012;8.448;2023-11-19T12:22:44;11.60;99.90
8475;DHT22;4274;52.012;8.448;2023-11-19T12:25:11;11.90;99.90
8475;DHT22;4274;52.012;8.448;2023-11-19T12:27:44;11.90;99.90
8475;DHT22;4274;52.012;8.448;2023-11-19T12:30:09;11.90;99.90
8475;DHT22;4274;52.012;8.448;2023-11-19T12:32:42;11.90;99.90
8475;DHT22;4274;52.012;8.448;2023-11-19T12:35:09;11.90;99.90
8475;DHT22;4274;52.012;8.448;2023-11-19T12:37:48;11.90;99.90
8475;DHT22;4274;52.012;8.448;2023-11-19T12:42:50;11.90;99.90
8475;DHT22;4274;52.012;8.448;2023-11-19T12:45:16;11.90;99.90
8475;DHT22;4274;52.012;8.448;2023-11-19T12:47:43;11.90;99.90
8475;DHT22;4274;52.012;8.448;2023-11-19T12:50:10;11.80;99.90
8475;DHT22;4274;52.012;8.448;2023-11-19T12:52:39;11.70;99.90
8475;DHT22;4274;52.012;8.448;2023-11-19T12:55:06;11.70;99.90
8475;DHT22;4274;52.012;8.448;2023-11-19T12:57:49;11.60;99.90
8475;DHT22;4274;52.012;8.448;2023-11-19T13:00:22;11.60;99.90
8475;DHT22;4274;52.012;8.448;2023-11-19T13:02:53;11.60;99.90
8475;DHT22;4274;52.012;8.448;2023-11-19T13:05:29;11.70;99.90
8475;DHT22;4274;52.012;8.448;2023-11-19T13:08:06;11.80;99.90
8475;DHT22;4274;52.012;8.448;2023-11-19T13:10:33;12.00;99.90
8475;DHT22;4274;52.012;8.448;2023-11-19T13:13:01;12.00;99.90
8475;DHT22;4274;52.012;8.448;2023-11-19T13:15:26;12.00;99.90
8475;DHT22;4274;52.012;8.448;2023-11-19T13:17:52;11.90;99.90
8475;DHT22;4274;52.012;8.448;2023-11-19T13:20:18;11.90;99.90
8475;DHT22;4274;52.012;8.448;2023-11-19T13:22:57;11.80;99.90
8475;DHT22;4274;52.012;8.448;2023-11-19T13:25:23;11.90;99.90
8475;DHT22;4274;52.012;8.448;2023-11-19T13:27:49;11.90;99.90
8475;DHT22;4274;52.012;8.448;2023-11-19T13:30:15;12.10;99.90
8475;DHT22;4274;52.012;8.448;2023-11-19T13:32:41;12.30;99.90
8475;DHT22;4274;52.012;8.448;2023-11-19T13:35:06;12.40;99.90
8475;DHT22;4274;52.012;8.448;2023-11-19T13:37:34;12.50;99.90
8475;DHT22;4274;52.012;8.448;2023-11-19T13:40:00;12.50;99.90
8475;DHT22;4274;52.012;8.448;2023-11-19T13:42:25;12.50;99.90
8475;DHT22;4274;52.012;8.448;2023-11-19T13:44:51;12.50;99.90
8475;DHT22;4274;52.012;8.448;2023-11-19T13:47:17;12.50;99.90
8475;DHT22;4274;52.012;8.448;2023-11-19T13:49:44;12.40;99.90
8475;DHT22;4274;52.012;8.448;2023-11-19T13:52:10;12.30;99.90
8475;DHT22;4274;52.012;8.448;2023-11-19T13:54:37;12.20;99.90
8475;DHT22;4274;52.012;8.448;2023-11-19T13:57:03;12.10;99.90
8475;DHT22;4274;52.012;8.448;2023-11-19T13:59:30;12.10;99.90
8475;DHT22;4274;52.012;8.448;2023-11-19T14:01:56;12.00;99.90
8475;DHT22;4274;52.012;8.448;2023-11-19T14:04:22;11.90;99.90
8475;DHT22;4274;52.012;8.448;2023-11-19T14:06:47;11.90;99.90
8475;DHT22;4274;52.012;8.448;2023-11-19T14:09:13;11.80;99.90
8475;DHT22;4274;52.012;8.448;2023-11-19T14:11:39;11.90;99.90
8475;DHT22;4274;52.012;8.448;2023-11-19T14:14:04;11.80;99.90
8475;DHT22;4274;52.012;8.448;2023-11-19T14:16:30;11.80;99.90
8475;DHT22;4274;52.012;8.448;2023-11-19T14:18:56;11.70;99.90
8475;DHT22;4274;52.012;8.448;2023-11-19T14:21:22;11.80;99.90
8475;DHT22;4274;52.012;8.448;2023-11-19T14:23:47;11.80;99.90
8475;DHT22;4274;52.012;8.448;2023-11-19T14:26:13;11.80;99.90
8475;DHT22;4274;52.012;8.448;2023-11-19T14:28:38;11.80;99.90
8475;DHT22;4274;52.012;8.448;2023-11-19T14:31:04;11.70;99.90
8475;DHT22;4274;52.012;8.448;2023-11-19T14:33:30;11.70;99.90
8475;DHT22;4274;52.012;8.448;2023-11-19T14:35:55;11.70;99.90
8475;DHT22;4274;52.012;8.448;2023-11-19T14:38:21;11.70;99.90
8475;DHT22;4274;52.012;8.448;2023-11-19T14:40:47;11.70;99.90
8475;DHT22;4274;52.012;8.448;2023-11-19T14:43:13;11.60;99.90
8475;DHT22;4274;52.012;8.448;2023-11-19T14:45:40;11.60;99.90
8475;DHT22;4274;52.012;8.448;2023-11-19T14:48:06;11.60;99.90
8475;DHT22;4274;52.012;8.448;2023-11-19T14:50:32;11.60;99.90
8475;DHT22;4274;52.012;8.448;2023-11-19T14:52:57;11.60;99.90
8475;DHT22;4274;52.012;8.448;2023-11-19T14:55:23;11.60;99.90
8475;DHT22;4274;52.012;8.448;2023-11-19T14:57:49;11.60;99.90
8475;DHT22;4274;52.012;8.448;2023-11-19T15:00:16;11.50;99.90
8475;DHT22;4274;52.012;8.448;2023-11-19T15:02:41;11.50;99.90
8475;DHT22;4274;52.012;8.448;2023-11-19T15:05:09;11.50;99.90
8475;DHT22;4274;52.012;8.448;2023-11-19T15:07:36;11.40;99.90
8475;DHT22;4274;52.012;8.448;2023-11-19T15:10:02;11.40;99.90
8475;DHT22;4274;52.012;8.448;2023-11-19T15:12:28;11.40;99.90
8475;DHT22;4274;52.012;8.448;2023-11-19T15:14:53;11.40;99.90
8475;DHT22;4274;52.012;8.448;2023-11-19T15:17:21;11.40;99.90
8475;DHT22;4274;52.012;8.448;2023-11-19T15:19:47;11.30;99.90
8475;DHT22;4274;52.012;8.448;2023-11-19T15:22:13;11.30;99.90
8475;DHT22;4274;52.012;8.448;2023-11-19T15:24:38;11.30;99.90
8475;DHT22;4274;52.012;8.448;2023-11-19T15:27:07;11.30;99.90
8475;DHT22;4274;52.012;8.448;2023-11-19T15:29:34;11.20;99.90
8475;DHT22;4274;52.012;8.448;2023-11-19T15:32:00;11.20;99.90
8475;DHT22;4274;52.012;8.448;2023-11-19T15:34:25;11.20;99.90
8475;DHT22;4274;52.012;8.448;2023-11-19T15:36:51;11.20;99.90
8475;DHT22;4274;52.012;8.448;2023-11-19T15:39:16;11.10;99.90
8475;DHT22;4274;52.012;8.448;2023-11-19T15:41:42;11.10;99.90
8475;DHT22;4274;52.012;8.448;2023-11-19T15:44:08;11.10;99.90
8475;DHT22;4274;52.012;8.448;2023-11-19T15:46:33;11.10;99.90
8475;DHT22;4274;52.012;8.448;2023-11-19T15:48:59;11.10;99.90
8475;DHT22;4274;52.012;8.448;2023-11-19T15:51:24;11.10;99.90
8475;DHT22;4274;52.012;8.448;2023-11-19T15:53:50;11.10;99.90
8475;DHT22;4274;52.012;8.448;2023-11-19T15:56:16;11.10;99.90
8475;DHT22;4274;52.012;8.448;2023-11-19T15:58:41;11.10;99.90
8475;DHT22;4274;52.012;8.448;2023-11-19T16:01:07;11.00;99.90
8475;DHT22;4274;52.012;8.448;2023-11-19T16:03:33;11.00;99.90
8475;DHT22;4274;52.012;8.448;2023-11-19T16:05:59;11.00;99.90
8475;DHT22;4274;52.012;8.448;2023-11-19T16:08:25;10.90;99.90
8475;DHT22;4274;52.012;8.448;2023-11-19T16:10:50;10.80;99.90
8475;DHT22;4274;52.012;8.448;2023-11-19T16:13:16;10.70;99.90
8475;DHT22;4274;52.012;8.448;2023-11-19T16:15:42;10.50;99.90
8475;DHT22;4274;52.012;8.448;2023-11-19T16:18:07;10.50;99.90
8475;DHT22;4274;52.012;8.448;2023-11-19T16:20:39;10.40;99.90
8475;DHT22;4274;52.012;8.448;2023-11-19T16:23:04;10.40;99.90
8475;DHT22;4274;52.012;8.448;2023-11-19T16:25:30;10.30;99.90
8475;DHT22;4274;52.012;8.448;2023-11-19T16:27:56;10.30;99.90